createdAt,value
2022-11-15T00:00:49.254Z,3.60
2022-11-15T00:03:34.840Z,3.60
2022-11-15T00:06:20.564Z,3.50
2022-11-15T00:09:06.159Z,3.60
2022-11-15T00:11:52.888Z,3.80
2022-11-15T00:14:38.147Z,3.80
2022-11-15T00:17:23.719Z,3.80
2022-11-15T00:20:09.942Z,3.80
2022-11-15T00:22:55.491Z,3.80
2022-11-15T00:25:40.894Z,3.80
2022-11-15T00:28:27.000Z,3.80
2022-11-15T00:31:14.691Z,3.80
2022-11-15T00:34:00.003Z,3.70
2022-11-15T00:36:45.635Z,3.70
2022-11-15T00:39:31.188Z,3.90
2022-11-15T00:42:16.888Z,3.80
2022-11-15T00:45:03.134Z,3.80
2022-11-15T00:47:48.548Z,3.70
2022-11-15T00:50:33.932Z,3.60
2022-11-15T00:53:19.326Z,3.60
2022-11-15T00:56:05.147Z,3.50
2022-11-15T00:58:50.681Z,3.70
2022-11-15T01:01:36.093Z,3.60
2022-11-15T01:04:21.844Z,3.60
2022-11-15T01:07:07.352Z,3.60
2022-11-15T01:09:52.886Z,3.70
2022-11-15T01:12:38.672Z,3.70
2022-11-15T01:15:24.020Z,3.70
2022-11-15T01:18:09.717Z,3.60
2022-11-15T01:20:55.225Z,3.80
2022-11-15T01:23:41.009Z,3.90
2022-11-15T01:26:26.810Z,4.00
2022-11-15T01:29:12.319Z,3.90
2022-11-15T01:31:57.727Z,3.80
2022-11-15T01:34:44.445Z,3.80
2022-11-15T01:37:30.099Z,3.90
2022-11-15T01:40:15.549Z,3.80
2022-11-15T01:43:19.538Z,3.70
2022-11-15T01:46:31.970Z,3.70
2022-11-15T01:49:23.557Z,3.90
2022-11-15T01:52:16.204Z,3.80
2022-11-15T01:55:22.306Z,3.90
2022-11-15T01:58:08.555Z,3.90
2022-11-15T02:00:54.157Z,4.00
2022-11-15T02:03:55.321Z,4.00
2022-11-15T02:06:42.025Z,3.90
2022-11-15T02:09:27.477Z,3.90
2022-11-15T02:12:17.397Z,3.90
2022-11-15T02:15:04.168Z,3.90
2022-11-15T02:18:11.559Z,4.00
2022-11-15T02:21:23.348Z,4.20
2022-11-15T02:24:36.041Z,4.30
2022-11-15T02:27:39.358Z,4.40
2022-11-15T02:30:35.748Z,4.30
2022-11-15T02:33:29.948Z,4.30
2022-11-15T02:36:22.921Z,4.10
2022-11-15T02:39:29.844Z,4.20
2022-11-15T02:42:18.392Z,4.20
2022-11-15T02:45:08.636Z,4.20
2022-11-15T02:47:57.618Z,4.20
2022-11-15T02:50:44.113Z,4.20
2022-11-15T02:53:30.063Z,4.20
2022-11-15T02:56:15.626Z,4.30
2022-11-15T02:59:20.757Z,4.30
2022-11-15T03:02:27.795Z,4.40
2022-11-15T03:05:34.695Z,4.50
2022-11-15T03:08:32.934Z,4.40
2022-11-15T03:11:20.846Z,4.50
2022-11-15T03:14:31.408Z,4.40
2022-11-15T03:17:31.207Z,4.50
2022-11-15T03:20:19.910Z,4.50
2022-11-15T03:23:09.740Z,4.50
2022-11-15T03:25:57.164Z,4.50
2022-11-15T03:28:50.973Z,4.50
2022-11-15T03:31:48.608Z,4.50
2022-11-15T03:34:43.740Z,4.50
2022-11-15T03:37:42.423Z,4.60
2022-11-15T03:40:56.902Z,4.80
2022-11-15T03:44:17.840Z,4.80
2022-11-15T03:47:10.609Z,4.80
2022-11-15T03:50:05.597Z,4.70
2022-11-15T03:52:51.655Z,4.60
2022-11-15T03:55:36.968Z,4.60
2022-11-15T03:58:22.535Z,4.60
2022-11-15T04:01:08.197Z,4.40
2022-11-15T04:03:53.632Z,4.50
2022-11-15T04:06:39.281Z,4.50
2022-11-15T04:09:24.503Z,4.50
2022-11-15T04:12:09.943Z,4.60
2022-11-15T04:14:55.447Z,4.60
2022-11-15T04:17:49.422Z,4.60
2022-11-15T04:20:34.619Z,4.60
2022-11-15T04:23:22.827Z,4.50
2022-11-15T04:26:13.602Z,4.70
2022-11-15T04:28:58.985Z,4.60
2022-11-15T04:31:44.476Z,4.70
2022-11-15T04:34:30.150Z,4.60
2022-11-15T04:37:15.639Z,4.70
2022-11-15T04:40:01.169Z,4.60
2022-11-15T04:42:46.755Z,4.80
2022-11-15T04:45:32.294Z,4.80
2022-11-15T04:48:17.892Z,4.80
2022-11-15T04:51:03.574Z,4.70
2022-11-15T04:53:49.080Z,4.70
2022-11-15T04:56:34.555Z,4.60
2022-11-15T04:59:20.112Z,4.70
2022-11-15T05:02:05.674Z,4.70
2022-11-15T05:04:51.347Z,4.80
2022-11-15T05:07:38.832Z,4.70
2022-11-15T05:10:24.285Z,4.70
2022-11-15T05:13:09.760Z,4.70
2022-11-15T05:15:55.167Z,4.80
2022-11-15T05:18:40.757Z,4.90
2022-11-15T05:21:26.099Z,5.00
2022-11-15T05:24:12.196Z,4.70
2022-11-15T05:26:57.739Z,4.80
2022-11-15T05:29:43.206Z,4.80
2022-11-15T05:32:29.710Z,4.90
2022-11-15T05:35:31.830Z,4.80
2022-11-15T05:38:17.534Z,4.80
2022-11-15T05:41:03.881Z,4.90
2022-11-15T05:43:51.186Z,4.90
2022-11-15T05:46:38.425Z,4.80
2022-11-15T05:49:27.400Z,4.90
2022-11-15T05:52:17.642Z,4.80
2022-11-15T05:55:06.249Z,4.80
2022-11-15T05:57:51.832Z,4.80
2022-11-15T06:00:38.106Z,4.70
2022-11-15T06:03:23.604Z,4.80
2022-11-15T06:06:13.664Z,4.90
2022-11-15T06:09:01.976Z,4.80
2022-11-15T06:11:47.491Z,4.80
2022-11-15T06:14:32.854Z,4.80
2022-11-15T06:20:04.350Z,5.10
2022-11-15T06:22:49.871Z,4.90
2022-11-15T06:25:35.317Z,4.80
2022-11-15T06:28:20.872Z,4.80
2022-11-15T06:31:07.987Z,4.80
2022-11-15T06:33:53.152Z,4.80
2022-11-15T06:36:38.580Z,4.80
2022-11-15T06:39:24.060Z,5.00
2022-11-15T06:42:10.131Z,5.00
2022-11-15T06:44:55.694Z,5.00
2022-11-15T06:47:50.076Z,5.00
2022-11-15T06:50:35.539Z,5.00
2022-11-15T06:53:21.526Z,5.00
2022-11-15T06:56:07.892Z,5.20
2022-11-15T06:58:53.381Z,5.10
2022-11-15T07:01:38.979Z,5.00
2022-11-15T07:04:24.427Z,5.00
2022-11-15T07:07:10.920Z,5.00
2022-11-15T07:09:56.543Z,5.10
2022-11-15T07:12:41.919Z,5.00
2022-11-15T07:15:27.590Z,5.10
2022-11-15T07:18:12.743Z,5.10
2022-11-15T07:21:03.140Z,5.20
2022-11-15T07:23:48.483Z,5.20
2022-11-15T07:26:34.045Z,5.10
2022-11-15T07:29:19.644Z,5.10
2022-11-15T07:32:05.277Z,5.20
2022-11-15T07:34:50.747Z,5.00
2022-11-15T07:37:36.441Z,5.10
2022-11-15T07:40:22.088Z,5.30
2022-11-15T07:43:08.484Z,5.40
2022-11-15T07:45:58.847Z,5.50
2022-11-15T07:48:45.674Z,5.50
2022-11-15T07:51:31.559Z,5.60
2022-11-15T07:54:17.155Z,5.70
2022-11-15T07:57:07.216Z,5.70
2022-11-15T07:59:53.531Z,5.70
2022-11-15T08:02:39.276Z,5.70
2022-11-15T08:05:24.953Z,5.90
2022-11-15T08:08:11.948Z,5.90
2022-11-15T08:10:59.282Z,5.90
2022-11-15T08:13:44.703Z,5.90
2022-11-15T08:16:30.119Z,5.80
2022-11-15T08:19:15.756Z,6.00
2022-11-15T08:22:01.151Z,5.90
2022-11-15T08:24:46.606Z,6.10
2022-11-15T08:27:32.339Z,6.10
2022-11-15T08:30:17.914Z,6.10
2022-11-15T08:33:03.520Z,6.30
2022-11-15T08:35:49.708Z,6.20
2022-11-15T08:38:35.151Z,6.20
2022-11-15T08:41:36.058Z,6.20
2022-11-15T08:44:21.202Z,6.30
2022-11-15T08:47:06.771Z,6.50
2022-11-15T08:49:52.099Z,6.40
2022-11-15T08:52:37.545Z,6.50
2022-11-15T08:55:24.767Z,6.60
2022-11-15T08:58:10.327Z,6.60
2022-11-15T09:00:55.967Z,6.60
2022-11-15T09:03:42.093Z,6.70
2022-11-15T09:06:27.546Z,6.70
2022-11-15T09:09:13.084Z,6.70
2022-11-15T09:12:02.521Z,6.80
2022-11-15T09:15:04.295Z,6.90
2022-11-15T09:17:49.699Z,6.70
2022-11-15T09:20:35.197Z,6.80
2022-11-15T09:23:20.743Z,6.90
2022-11-15T09:26:06.972Z,6.90
2022-11-15T09:28:52.223Z,6.80
2022-11-15T09:31:37.816Z,6.80
2022-11-15T09:34:23.239Z,7.00
2022-11-15T09:37:08.659Z,7.00
2022-11-15T09:39:54.307Z,6.90
2022-11-15T09:43:08.229Z,6.80
2022-11-15T09:46:07.663Z,6.80
2022-11-15T09:49:01.312Z,6.80
2022-11-15T09:51:58.881Z,6.80
2022-11-15T09:57:40.354Z,7.20
2022-11-15T10:03:28.440Z,7.00
2022-11-15T10:06:00.274Z,7.10
2022-11-15T10:08:47.161Z,7.00
2022-11-15T10:11:40.939Z,6.80
2022-11-15T10:14:20.768Z,6.90
2022-11-15T10:16:50.933Z,6.90
2022-11-15T10:19:39.611Z,6.80
2022-11-15T10:22:31.106Z,6.90
2022-11-15T10:25:17.348Z,6.90
2022-11-15T10:27:47.670Z,6.90
2022-11-15T10:30:18.353Z,6.90
2022-11-15T10:32:46.901Z,6.90
2022-11-15T10:35:29.267Z,6.90
2022-11-15T10:38:10.478Z,7.00
2022-11-15T10:40:38.747Z,7.00
2022-11-15T10:43:07.128Z,7.00
2022-11-15T10:45:34.786Z,7.00
2022-11-15T10:48:13.846Z,7.10
2022-11-15T10:50:45.246Z,7.10
2022-11-15T10:53:16.769Z,7.00
2022-11-15T10:55:49.000Z,7.10
2022-11-15T10:58:45.046Z,7.20
2022-11-15T11:01:22.827Z,7.10
2022-11-15T11:04:08.016Z,7.30
2022-11-15T11:06:55.223Z,7.30
2022-11-15T11:09:39.853Z,7.20
2022-11-15T11:14:55.133Z,7.10
2022-11-15T11:17:37.566Z,7.20
2022-11-15T11:20:10.969Z,7.20
2022-11-15T11:23:13.099Z,7.20
2022-11-15T11:26:18.624Z,7.20
2022-11-15T11:29:11.722Z,7.20
2022-11-15T11:31:54.953Z,7.20
2022-11-15T11:34:40.177Z,7.20
2022-11-15T11:37:15.100Z,7.00
2022-11-15T11:39:57.201Z,7.00
2022-11-15T11:42:45.856Z,7.10
2022-11-15T11:45:12.686Z,7.00
2022-11-15T11:47:48.960Z,7.00
2022-11-15T11:50:24.346Z,7.00
2022-11-15T11:53:04.719Z,7.00
2022-11-15T11:55:49.423Z,7.10
2022-11-15T11:58:43.777Z,7.00
2022-11-15T12:01:21.240Z,7.00
2022-11-15T12:04:02.868Z,7.10
2022-11-15T12:06:50.618Z,7.10
2022-11-15T12:09:39.137Z,7.20
2022-11-15T12:12:22.421Z,7.30
2022-11-15T12:15:10.609Z,7.30
2022-11-15T12:17:39.604Z,7.20
2022-11-15T12:20:20.571Z,7.10
2022-11-15T12:22:59.318Z,7.10
2022-11-15T12:25:26.155Z,7.10
2022-11-15T12:27:56.641Z,7.10
2022-11-15T12:30:24.938Z,7.10
2022-11-15T12:32:56.688Z,7.10
2022-11-15T12:35:35.898Z,7.00
2022-11-15T12:38:02.678Z,7.00
2022-11-15T12:40:33.845Z,7.00
2022-11-15T12:43:15.948Z,7.00
2022-11-15T12:45:45.063Z,7.10
2022-11-15T12:48:37.679Z,7.10
2022-11-15T12:51:05.471Z,7.00
2022-11-15T12:53:34.204Z,7.10
2022-11-15T12:56:13.350Z,7.00
2022-11-15T12:58:42.304Z,7.10
2022-11-15T13:01:09.367Z,7.00
2022-11-15T13:03:36.765Z,7.00
2022-11-15T13:06:06.268Z,7.10
2022-11-15T13:08:45.355Z,7.20
2022-11-15T13:11:47.237Z,7.30
2022-11-15T13:14:39.402Z,7.20
2022-11-15T13:17:27.121Z,7.20
2022-11-15T13:20:23.407Z,7.20
2022-11-15T13:23:00.008Z,7.20
2022-11-15T13:26:02.347Z,7.30
2022-11-15T13:28:50.795Z,7.30
2022-11-15T13:31:28.725Z,7.30
2022-11-15T13:34:01.904Z,7.40
2022-11-15T13:36:32.522Z,7.30
2022-11-15T13:39:21.095Z,7.40
2022-11-15T13:41:51.463Z,7.40
2022-11-15T13:44:23.994Z,7.30
2022-11-15T13:47:06.171Z,7.40
2022-11-15T13:49:34.829Z,7.50
2022-11-15T13:52:06.505Z,7.40
2022-11-15T13:54:42.953Z,7.30
2022-11-15T13:57:24.163Z,7.30
2022-11-15T13:59:55.701Z,7.30
2022-11-15T14:02:28.148Z,7.30
2022-11-15T14:05:00.754Z,7.20
2022-11-15T14:07:29.061Z,7.20
2022-11-15T14:09:56.192Z,7.20
2022-11-15T14:12:32.094Z,7.20
2022-11-15T14:15:00.861Z,7.10
2022-11-15T14:17:30.794Z,7.10
2022-11-15T14:19:58.996Z,7.10
2022-11-15T14:22:28.033Z,7.10
2022-11-15T14:25:23.948Z,7.10
2022-11-15T14:28:17.645Z,7.10
2022-11-15T14:30:46.578Z,7.10
2022-11-15T14:33:25.460Z,7.10
2022-11-15T14:35:53.423Z,7.10
2022-11-15T14:38:20.208Z,7.10
2022-11-15T14:40:47.199Z,7.20
2022-11-15T14:43:14.499Z,7.10
2022-11-15T14:45:41.879Z,7.10
2022-11-15T14:48:09.092Z,7.10
2022-11-15T14:50:36.732Z,7.10
2022-11-15T14:53:04.244Z,7.00
2022-11-15T14:55:33.453Z,7.10
2022-11-15T14:58:00.299Z,7.10
2022-11-15T15:00:29.824Z,7.10
2022-11-15T15:03:01.179Z,7.10
2022-11-15T15:05:32.390Z,7.10
2022-11-15T15:07:59.440Z,7.20
2022-11-15T15:10:41.060Z,7.20
2022-11-15T15:13:18.502Z,7.10
2022-11-15T15:15:45.648Z,7.10
2022-11-15T15:18:12.448Z,7.10
2022-11-15T15:20:40.519Z,7.10
2022-11-15T15:23:19.403Z,7.00
2022-11-15T15:25:47.805Z,7.00
2022-11-15T15:28:14.765Z,7.00
2022-11-15T15:30:42.181Z,7.00
2022-11-15T15:33:09.036Z,7.00
2022-11-15T15:35:36.481Z,7.00
2022-11-15T15:38:04.538Z,6.90
2022-11-15T15:40:33.644Z,7.00
2022-11-15T15:43:01.200Z,7.00
2022-11-15T15:45:28.412Z,7.00
2022-11-15T15:47:55.326Z,7.00
2022-11-15T15:50:28.557Z,7.00
2022-11-15T15:52:58.381Z,6.90
2022-11-15T15:55:26.209Z,7.00
2022-11-15T15:57:53.654Z,7.00
2022-11-15T16:00:21.826Z,7.00
2022-11-15T16:02:48.643Z,7.00
2022-11-15T16:05:15.489Z,7.00
2022-11-15T16:07:42.504Z,7.00
2022-11-15T16:10:28.761Z,7.00
2022-11-15T16:12:57.235Z,6.90
2022-11-15T16:15:27.002Z,6.90
2022-11-15T16:17:56.303Z,6.90
2022-11-15T16:20:35.210Z,6.90
2022-11-15T16:23:08.672Z,6.80
2022-11-15T16:25:39.705Z,6.80
2022-11-15T16:28:15.695Z,6.70
2022-11-15T16:30:42.507Z,6.80
2022-11-15T16:33:09.278Z,6.80
2022-11-15T16:35:36.051Z,6.80
2022-11-15T16:38:02.890Z,6.80
2022-11-15T16:40:34.726Z,6.90
2022-11-15T16:43:01.975Z,6.90
2022-11-15T16:45:29.497Z,7.00
2022-11-15T16:47:56.966Z,6.80
2022-11-15T16:50:26.804Z,6.80
2022-11-15T16:52:56.017Z,6.80
2022-11-15T16:55:25.029Z,6.80
2022-11-15T16:57:51.954Z,6.80
2022-11-15T17:00:20.310Z,6.80
2022-11-15T17:02:48.978Z,6.80
2022-11-15T17:05:20.382Z,6.80
2022-11-15T17:07:49.572Z,6.90
2022-11-15T17:10:17.205Z,6.80
2022-11-15T17:12:44.648Z,6.80
2022-11-15T17:15:14.554Z,6.80
2022-11-15T17:17:41.851Z,6.80
2022-11-15T17:20:15.800Z,6.80
2022-11-15T17:22:43.554Z,6.80
2022-11-15T17:25:12.242Z,6.80
2022-11-15T17:27:39.231Z,6.70
2022-11-15T17:30:07.491Z,6.70
2022-11-15T17:32:37.559Z,6.70
2022-11-15T17:35:08.190Z,6.80
2022-11-15T17:37:37.993Z,6.80
2022-11-15T17:40:05.770Z,6.70
2022-11-15T17:42:32.636Z,6.70
2022-11-15T17:45:01.098Z,6.70
2022-11-15T17:47:29.680Z,6.60
2022-11-15T17:49:56.469Z,6.70
2022-11-15T17:52:23.275Z,6.60
2022-11-15T17:54:50.449Z,6.60
2022-11-15T17:57:17.291Z,6.70
2022-11-15T17:59:44.160Z,6.60
2022-11-15T18:02:11.258Z,6.50
2022-11-15T18:04:38.156Z,6.60
2022-11-15T18:07:04.977Z,6.60
2022-11-15T18:09:31.805Z,6.50
2022-11-15T18:11:58.897Z,6.50
2022-11-15T18:14:25.820Z,6.60
2022-11-15T18:16:52.965Z,6.50
2022-11-15T18:19:19.877Z,6.60
2022-11-15T18:21:48.632Z,6.60
2022-11-15T18:24:15.507Z,6.60
2022-11-15T18:26:42.551Z,6.60
2022-11-15T18:29:10.076Z,6.60
2022-11-15T18:31:37.033Z,6.60
2022-11-15T18:34:04.321Z,6.50
2022-11-15T18:36:32.007Z,6.50
2022-11-15T18:39:01.757Z,6.50
2022-11-15T18:41:29.688Z,6.60
2022-11-15T18:44:01.815Z,6.50
2022-11-15T18:46:32.089Z,6.40
2022-11-15T18:49:01.649Z,6.50
2022-11-15T18:51:30.927Z,6.50
2022-11-15T18:54:00.782Z,6.50
2022-11-15T18:56:30.764Z,6.40
2022-11-15T18:59:00.777Z,6.40
2022-11-15T19:01:30.894Z,6.40
2022-11-15T19:03:58.763Z,6.50
2022-11-15T19:06:28.128Z,6.40
2022-11-15T19:08:57.739Z,6.40
2022-11-15T19:11:36.332Z,6.50
2022-11-15T19:14:09.162Z,6.50
2022-11-15T19:16:38.749Z,6.40
2022-11-15T19:19:08.783Z,6.40
2022-11-15T19:21:36.155Z,6.40
2022-11-15T19:24:03.646Z,6.30
2022-11-15T19:26:31.103Z,6.30
2022-11-15T19:29:00.484Z,6.30
2022-11-15T19:31:29.955Z,6.30
2022-11-15T19:33:59.328Z,6.30
2022-11-15T19:36:28.718Z,6.30
2022-11-15T19:38:56.313Z,6.20
2022-11-15T19:41:25.681Z,6.30
2022-11-15T19:43:53.797Z,6.20
2022-11-15T19:46:22.916Z,6.30
2022-11-15T19:48:51.031Z,6.20
2022-11-15T19:51:20.714Z,6.20
2022-11-15T19:53:49.036Z,6.20
2022-11-15T19:56:18.983Z,6.20
2022-11-15T19:58:47.043Z,6.30
2022-11-15T20:01:18.496Z,6.30
2022-11-15T20:03:47.921Z,6.40
2022-11-15T20:06:18.024Z,6.30
2022-11-15T20:08:46.236Z,6.30
2022-11-15T20:11:14.387Z,6.30
2022-11-15T20:13:42.029Z,6.40
2022-11-15T20:16:09.913Z,6.40
2022-11-15T20:18:37.216Z,6.30
2022-11-15T20:21:04.711Z,6.30
2022-11-15T20:23:32.296Z,6.30
2022-11-15T20:25:59.931Z,6.30
2022-11-15T20:28:28.209Z,6.20
2022-11-15T20:31:00.301Z,6.20
2022-11-15T20:33:28.739Z,6.20
2022-11-15T20:35:55.943Z,6.30
2022-11-15T20:38:23.414Z,6.20
2022-11-15T20:40:53.693Z,6.30
2022-11-15T20:43:24.416Z,6.30
2022-11-15T20:45:51.202Z,6.30
2022-11-15T20:48:18.153Z,6.20
2022-11-15T20:50:46.174Z,6.30
2022-11-15T20:53:15.831Z,6.20
2022-11-15T20:55:45.466Z,6.20
2022-11-15T20:58:12.387Z,6.20
2022-11-15T21:00:39.575Z,6.20
2022-11-15T21:03:06.464Z,6.30
2022-11-15T21:05:40.347Z,6.30
2022-11-15T21:08:08.645Z,6.30
2022-11-15T21:10:35.766Z,6.30
2022-11-15T21:13:02.593Z,6.20
2022-11-15T21:15:29.519Z,6.20
2022-11-15T21:17:56.354Z,6.20
2022-11-15T21:20:23.113Z,6.20
2022-11-15T21:22:49.861Z,6.30
2022-11-15T21:25:16.743Z,6.20
2022-11-15T21:27:43.591Z,6.20
2022-11-15T21:30:11.062Z,6.20
2022-11-15T21:32:37.942Z,6.30
2022-11-15T21:35:05.792Z,6.30
2022-11-15T21:37:32.635Z,6.30
2022-11-15T21:39:59.479Z,6.30
2022-11-15T21:42:26.292Z,6.30
2022-11-15T21:44:53.111Z,6.30
2022-11-15T21:47:19.971Z,6.20
2022-11-15T21:49:46.817Z,6.30
2022-11-15T21:52:13.771Z,6.40
2022-11-15T21:54:40.787Z,6.30
2022-11-15T21:57:07.637Z,6.20
2022-11-15T21:59:34.409Z,6.30
2022-11-15T22:02:01.276Z,6.20
2022-11-15T22:04:28.073Z,6.20
2022-11-15T22:06:55.062Z,6.10
2022-11-15T22:09:22.037Z,6.20
2022-11-15T22:11:48.875Z,6.30
2022-11-15T22:14:15.713Z,6.20
2022-11-15T22:16:42.558Z,6.30
2022-11-15T22:19:09.337Z,6.30
2022-11-15T22:21:36.454Z,6.30
2022-11-15T22:24:03.536Z,6.20
2022-11-15T22:26:30.360Z,6.20
2022-11-15T22:28:57.133Z,6.20
2022-11-15T22:31:24.107Z,6.20
2022-11-15T22:33:50.894Z,6.20
2022-11-15T22:36:17.808Z,6.30
2022-11-15T22:38:44.653Z,6.30
2022-11-15T22:41:11.505Z,6.30
2022-11-15T22:43:38.384Z,6.30
2022-11-15T22:46:05.898Z,6.20
2022-11-15T22:48:38.581Z,6.20
2022-11-15T22:51:06.618Z,6.20
2022-11-15T22:53:33.894Z,6.20
2022-11-15T22:56:02.911Z,6.20
2022-11-15T22:58:31.429Z,6.20
2022-11-15T23:01:00.660Z,6.20
2022-11-15T23:03:28.493Z,6.20
2022-11-15T23:05:55.407Z,6.20
2022-11-15T23:08:23.418Z,6.20
2022-11-15T23:10:50.207Z,6.20
2022-11-15T23:13:17.080Z,6.20
2022-11-15T23:15:48.706Z,6.20
2022-11-15T23:18:15.593Z,6.20
2022-11-15T23:20:43.872Z,6.20
2022-11-15T23:23:11.860Z,6.30
2022-11-15T23:25:38.673Z,6.30
2022-11-15T23:28:05.869Z,6.30
2022-11-15T23:30:36.956Z,6.30
2022-11-15T23:33:03.790Z,6.20
2022-11-15T23:35:30.604Z,6.20
2022-11-15T23:37:57.342Z,6.20
2022-11-15T23:40:24.118Z,6.20
2022-11-15T23:42:51.114Z,6.20
2022-11-15T23:45:18.102Z,6.20
2022-11-15T23:47:45.164Z,6.20
2022-11-15T23:50:12.062Z,6.20
2022-11-15T23:52:38.878Z,6.20
2022-11-15T23:55:06.128Z,6.20
2022-11-15T23:57:32.880Z,6.20
